createdAt,value
2023-02-09T00:02:17.751Z,-3.58
2023-02-09T00:04:44.213Z,-3.54
2023-02-09T00:07:11.151Z,-3.75
2023-02-09T00:09:37.593Z,-3.75
2023-02-09T00:12:23.898Z,-3.67
2023-02-09T00:14:51.675Z,-3.94
2023-02-09T00:17:18.524Z,-3.80
2023-02-09T00:19:45.364Z,-3.76
2023-02-09T00:22:11.973Z,-3.78
2023-02-09T00:24:38.678Z,-3.87
2023-02-09T00:27:05.572Z,-3.79
2023-02-09T00:29:32.227Z,-3.86
2023-02-09T00:31:58.843Z,-4.02
2023-02-09T00:34:25.466Z,-4.12
2023-02-09T00:36:51.822Z,-4.08
2023-02-09T00:39:18.332Z,-4.16
2023-02-09T00:42:03.879Z,-4.11
2023-02-09T00:44:31.748Z,-3.96
2023-02-09T00:46:58.328Z,-3.87
2023-02-09T00:49:24.797Z,-3.78
2023-02-09T00:51:51.579Z,-3.94
2023-02-09T00:54:18.344Z,-4.08
2023-02-09T00:56:45.141Z,-4.09
2023-02-09T00:59:12.272Z,-4.15
2023-02-09T01:01:39.116Z,-4.18
2023-02-09T01:04:05.823Z,-4.02
2023-02-09T01:06:33.129Z,-4.04
2023-02-09T01:09:00.315Z,-4.09
2023-02-09T01:11:29.647Z,-4.02
2023-02-09T01:13:59.111Z,-4.03
2023-02-09T01:16:28.689Z,-3.97
2023-02-09T01:18:56.019Z,-3.89
2023-02-09T01:21:23.434Z,-3.75
2023-02-09T01:23:50.947Z,-3.57
2023-02-09T01:26:18.968Z,-3.44
2023-02-09T01:28:49.034Z,-3.51
2023-02-09T01:31:27.930Z,-3.45
2023-02-09T01:33:57.018Z,-3.45
2023-02-09T01:36:23.634Z,-3.65
2023-02-09T01:38:51.410Z,-3.70
2023-02-09T01:41:17.988Z,-3.66
2023-02-09T01:43:55.046Z,-3.47
2023-02-09T01:46:23.391Z,-3.43
2023-02-09T01:48:55.580Z,-3.55
2023-02-09T01:51:22.965Z,-3.55
2023-02-09T01:53:50.140Z,-3.47
2023-02-09T01:56:21.450Z,-3.59
2023-02-09T01:58:49.388Z,-3.63
2023-02-09T02:01:16.823Z,-3.75
2023-02-09T02:03:45.011Z,-3.87
2023-02-09T02:06:12.939Z,-3.94
2023-02-09T02:08:52.303Z,-3.88
2023-02-09T02:11:20.151Z,-3.81
2023-02-09T02:13:47.242Z,-3.87
2023-02-09T02:16:43.159Z,-3.91
2023-02-09T02:19:29.965Z,-4.16
2023-02-09T02:22:12.141Z,-4.14
2023-02-09T02:24:59.002Z,-4.11
2023-02-09T02:27:32.725Z,-4.04
2023-02-09T02:30:13.458Z,-4.03
2023-02-09T02:32:49.326Z,-4.17
2023-02-09T02:35:27.426Z,-4.31
2023-02-09T02:38:26.263Z,-4.38
2023-02-09T02:41:04.877Z,-4.08
2023-02-09T02:43:34.328Z,-3.96
2023-02-09T02:46:26.685Z,-4.00
2023-02-09T02:49:03.483Z,-4.02
2023-02-09T02:51:40.743Z,-3.91
2023-02-09T02:54:11.393Z,-3.81
2023-02-09T02:56:41.572Z,-3.67
2023-02-09T02:59:12.777Z,-3.87
2023-02-09T03:01:54.790Z,-4.14
2023-02-09T03:04:23.536Z,-4.14
2023-02-09T03:06:49.954Z,-3.99
2023-02-09T03:09:18.526Z,-3.87
2023-02-09T03:11:49.271Z,-3.98
2023-02-09T03:14:45.584Z,-4.03
2023-02-09T03:17:31.303Z,-4.01
2023-02-09T03:20:03.463Z,-3.94
2023-02-09T03:22:38.864Z,-3.85
2023-02-09T03:25:07.550Z,-3.79
2023-02-09T03:27:49.196Z,-3.76
2023-02-09T03:30:17.939Z,-3.60
2023-02-09T03:32:46.791Z,-3.70
2023-02-09T03:35:17.581Z,-3.82
2023-02-09T03:37:44.735Z,-3.90
2023-02-09T03:40:11.543Z,-3.88
2023-02-09T03:42:38.588Z,-4.03
2023-02-09T03:45:07.872Z,-4.13
2023-02-09T03:47:35.111Z,-4.17
2023-02-09T03:50:02.022Z,-4.29
2023-02-09T03:52:30.909Z,-4.33
2023-02-09T03:54:57.338Z,-4.33
2023-02-09T03:57:23.984Z,-4.38
2023-02-09T03:59:51.368Z,-4.44
2023-02-09T04:02:18.018Z,-4.58
2023-02-09T04:04:44.575Z,-4.61
2023-02-09T04:07:13.802Z,-4.66
2023-02-09T04:09:40.596Z,-4.71
2023-02-09T04:12:07.185Z,-4.79
2023-02-09T04:14:33.800Z,-4.74
2023-02-09T04:17:00.977Z,-4.77
2023-02-09T04:19:27.608Z,-4.86
2023-02-09T04:21:54.158Z,-4.91
2023-02-09T04:24:21.715Z,-5.04
2023-02-09T04:26:48.156Z,-5.00
2023-02-09T04:29:14.667Z,-5.11
2023-02-09T04:31:41.231Z,-5.02
2023-02-09T04:34:07.932Z,-5.03
2023-02-09T04:36:34.673Z,-5.08
2023-02-09T04:39:01.180Z,-5.07
2023-02-09T04:41:27.727Z,-5.09
2023-02-09T04:43:55.105Z,-4.96
2023-02-09T04:46:21.738Z,-4.90
2023-02-09T04:48:48.299Z,-4.92
2023-02-09T04:51:15.270Z,-4.99
2023-02-09T04:53:42.298Z,-5.03
2023-02-09T04:56:10.069Z,-5.11
2023-02-09T04:58:55.460Z,-5.13
2023-02-09T05:01:24.400Z,-5.11
2023-02-09T05:03:51.291Z,-5.24
2023-02-09T05:06:18.778Z,-5.27
2023-02-09T05:08:45.604Z,-5.36
2023-02-09T05:11:12.688Z,-5.36
2023-02-09T05:13:39.602Z,-5.37
2023-02-09T05:16:13.404Z,-5.47
2023-02-09T05:18:40.674Z,-5.47
2023-02-09T05:21:08.059Z,-5.44
2023-02-09T05:23:35.186Z,-5.54
2023-02-09T05:26:02.220Z,-5.48
2023-02-09T05:28:29.064Z,-5.50
2023-02-09T05:30:55.642Z,-5.66
2023-02-09T05:33:24.271Z,-5.67
2023-02-09T05:35:52.377Z,-5.63
2023-02-09T05:38:19.552Z,-5.68
2023-02-09T05:40:46.561Z,-5.41
2023-02-09T05:43:13.819Z,-5.46
2023-02-09T05:45:40.857Z,-5.45
2023-02-09T05:48:07.674Z,-5.63
2023-02-09T05:50:35.872Z,-5.68
2023-02-09T05:53:02.570Z,-5.67
2023-02-09T05:55:29.378Z,-5.67
2023-02-09T05:57:56.105Z,-5.71
2023-02-09T06:00:25.028Z,-5.66
2023-02-09T06:02:51.837Z,-5.49
2023-02-09T06:05:20.711Z,-5.48
2023-02-09T06:07:48.125Z,-5.62
2023-02-09T06:10:14.539Z,-5.50
2023-02-09T06:12:41.534Z,-5.47
2023-02-09T06:15:08.607Z,-5.50
2023-02-09T06:17:36.287Z,-5.45
2023-02-09T06:20:03.434Z,-5.45
2023-02-09T06:22:31.667Z,-5.60
2023-02-09T06:24:58.810Z,-5.58
2023-02-09T06:27:25.894Z,-5.57
2023-02-09T06:29:52.567Z,-5.62
2023-02-09T06:32:19.551Z,-5.70
2023-02-09T06:34:46.007Z,-5.69
2023-02-09T06:37:12.527Z,-5.70
2023-02-09T06:39:39.246Z,-5.70
2023-02-09T06:42:05.820Z,-5.76
2023-02-09T06:44:33.162Z,-5.76
2023-02-09T06:46:59.745Z,-5.61
2023-02-09T06:49:26.541Z,-5.51
2023-02-09T06:51:53.256Z,-5.55
2023-02-09T06:54:20.612Z,-5.53
2023-02-09T06:56:47.813Z,-5.39
2023-02-09T06:59:14.507Z,-5.36
2023-02-09T07:01:41.453Z,-5.34
2023-02-09T07:04:08.114Z,-5.33
2023-02-09T07:06:34.613Z,-5.32
2023-02-09T07:09:01.907Z,-5.24
2023-02-09T07:11:30.385Z,-5.16
2023-02-09T07:13:57.673Z,-5.24
2023-02-09T07:16:24.197Z,-5.33
2023-02-09T07:18:51.259Z,-5.23
2023-02-09T07:21:19.965Z,-5.27
2023-02-09T07:23:47.713Z,-5.24
2023-02-09T07:26:16.864Z,-5.21
2023-02-09T07:28:45.083Z,-5.11
2023-02-09T07:31:14.186Z,-5.02
2023-02-09T07:33:41.045Z,-5.05
2023-02-09T07:36:10.800Z,-5.01
2023-02-09T07:38:38.739Z,-4.98
2023-02-09T07:41:07.409Z,-4.90
2023-02-09T07:43:34.602Z,-4.88
2023-02-09T07:46:07.017Z,-4.85
2023-02-09T07:48:34.517Z,-4.85
2023-02-09T07:51:01.965Z,-4.76
2023-02-09T07:53:29.591Z,-4.74
2023-02-09T07:55:56.211Z,-4.54
2023-02-09T07:58:23.239Z,-4.40
2023-02-09T08:00:51.478Z,-4.45
2023-02-09T08:03:20.594Z,-4.47
2023-02-09T08:05:58.580Z,-4.40
2023-02-09T08:08:25.231Z,-4.46
2023-02-09T08:10:54.612Z,-4.18
2023-02-09T08:13:22.784Z,-4.04
2023-02-09T08:16:00.806Z,-3.92
2023-02-09T08:18:32.376Z,-3.87
2023-02-09T08:20:59.164Z,-3.87
2023-02-09T08:23:30.659Z,-3.84
2023-02-09T08:26:00.204Z,-3.80
2023-02-09T08:28:41.726Z,-3.69
2023-02-09T08:31:15.044Z,-3.48
2023-02-09T08:33:42.664Z,-3.30
2023-02-09T08:36:11.615Z,-3.27
2023-02-09T08:38:38.977Z,-3.37
2023-02-09T08:41:08.667Z,-3.38
2023-02-09T08:43:35.734Z,-3.29
2023-02-09T08:46:07.474Z,-3.20
2023-02-09T08:48:36.949Z,-3.08
2023-02-09T08:51:04.270Z,-2.89
2023-02-09T08:53:31.635Z,-2.69
2023-02-09T08:55:59.464Z,-2.70
2023-02-09T08:58:27.139Z,-2.66
2023-02-09T09:00:59.249Z,-2.49
2023-02-09T09:03:29.815Z,-2.49
2023-02-09T09:06:07.243Z,-2.41
2023-02-09T09:08:35.265Z,-2.39
2023-02-09T09:11:02.493Z,-2.31
2023-02-09T09:13:29.533Z,-2.17
2023-02-09T09:15:56.228Z,-1.86
2023-02-09T09:18:24.990Z,-1.67
2023-02-09T09:20:51.851Z,-1.62
2023-02-09T09:23:21.448Z,-1.70
2023-02-09T09:25:49.068Z,-1.75
2023-02-09T09:28:16.965Z,-1.45
2023-02-09T09:30:43.903Z,-1.44
2023-02-09T09:33:11.236Z,-1.33
2023-02-09T09:35:40.438Z,-1.25
2023-02-09T09:38:07.334Z,-1.12
2023-02-09T09:40:36.970Z,-1.00
2023-02-09T09:43:06.839Z,-0.85
2023-02-09T09:45:37.692Z,-0.93
2023-02-09T09:48:06.926Z,-0.92
2023-02-09T09:50:41.325Z,-0.56
2023-02-09T09:53:07.766Z,-0.26
2023-02-09T09:55:35.271Z,-0.15
2023-02-09T09:58:05.757Z,-0.48
2023-02-09T10:00:39.767Z,0.02
2023-02-09T10:03:16.547Z,0.37
2023-02-09T10:05:45.361Z,0.44
2023-02-09T10:08:20.937Z,0.99
2023-02-09T10:11:10.372Z,0.75
2023-02-09T10:13:44.283Z,0.72
2023-02-09T10:16:26.771Z,0.61
2023-02-09T10:18:56.160Z,0.94
2023-02-09T10:21:35.962Z,1.12
2023-02-09T10:24:04.409Z,2.26
2023-02-09T10:26:33.733Z,3.08
2023-02-09T10:29:14.950Z,3.26
2023-02-09T10:31:43.385Z,2.83
2023-02-09T10:34:15.806Z,2.86
2023-02-09T10:36:50.254Z,3.33
2023-02-09T10:39:18.717Z,3.21
2023-02-09T10:41:52.709Z,3.03
2023-02-09T10:44:23.845Z,2.80
2023-02-09T10:47:08.454Z,2.66
2023-02-09T10:49:38.413Z,2.28
2023-02-09T10:52:17.605Z,2.39
2023-02-09T10:54:52.079Z,2.28
2023-02-09T10:57:28.211Z,2.72
2023-02-09T10:59:58.543Z,2.82
2023-02-09T11:02:35.272Z,3.33
2023-02-09T11:05:02.554Z,3.81
2023-02-09T11:07:37.184Z,4.15
2023-02-09T11:10:12.543Z,4.99
2023-02-09T11:12:39.669Z,5.84
2023-02-09T11:15:13.659Z,5.72
2023-02-09T11:17:50.760Z,5.38
2023-02-09T11:20:26.439Z,5.52
2023-02-09T11:23:21.825Z,5.11
2023-02-09T11:26:01.730Z,5.84
2023-02-09T11:28:46.002Z,6.45
2023-02-09T11:31:48.414Z,6.43
2023-02-09T11:34:27.147Z,6.55
2023-02-09T11:37:10.691Z,6.45
2023-02-09T11:39:46.916Z,6.60
2023-02-09T11:42:40.586Z,7.17
2023-02-09T11:45:21.738Z,7.18
2023-02-09T11:48:01.427Z,7.43
2023-02-09T11:50:44.261Z,7.59
2023-02-09T11:53:28.021Z,8.15
2023-02-09T11:55:57.805Z,8.23
2023-02-09T11:58:44.290Z,7.37
2023-02-09T12:01:32.572Z,7.97
2023-02-09T12:04:36.772Z,8.64
2023-02-09T12:07:13.059Z,8.80
2023-02-09T12:09:51.725Z,9.16
2023-02-09T12:12:42.590Z,8.79
2023-02-09T12:15:18.109Z,8.47
2023-02-09T12:17:58.896Z,8.21
2023-02-09T12:20:38.279Z,8.84
2023-02-09T12:23:10.982Z,8.21
2023-02-09T12:25:52.932Z,8.30
2023-02-09T12:28:32.257Z,8.72
2023-02-09T12:31:00.742Z,7.73
2023-02-09T12:33:29.017Z,8.22
2023-02-09T12:36:10.804Z,7.02
2023-02-09T12:39:07.896Z,7.67
2023-02-09T12:41:34.574Z,7.29
2023-02-09T12:44:10.621Z,7.75
2023-02-09T12:46:46.777Z,7.44
2023-02-09T12:49:20.700Z,7.42
2023-02-09T12:51:53.262Z,7.84
2023-02-09T12:54:41.646Z,7.20
2023-02-09T12:57:17.940Z,7.11
2023-02-09T13:00:00.379Z,6.61
2023-02-09T13:02:56.115Z,6.68
2023-02-09T13:05:39.320Z,6.27
2023-02-09T13:08:13.387Z,6.62
2023-02-09T13:10:46.169Z,6.32
2023-02-09T13:13:12.905Z,6.32
2023-02-09T13:16:01.331Z,6.46
2023-02-09T13:18:41.163Z,5.77
2023-02-09T13:21:45.268Z,5.84
2023-02-09T13:24:18.478Z,5.75
2023-02-09T13:26:54.391Z,5.96
2023-02-09T13:29:22.558Z,6.24
2023-02-09T13:32:13.005Z,6.18
2023-02-09T13:34:53.544Z,6.16
2023-02-09T13:37:44.783Z,5.78
2023-02-09T13:40:17.378Z,5.76
2023-02-09T13:43:02.809Z,5.75
2023-02-09T13:45:29.916Z,6.00
2023-02-09T13:47:59.238Z,6.16
2023-02-09T13:50:31.899Z,6.21
2023-02-09T13:53:10.111Z,6.43
2023-02-09T13:55:39.976Z,5.91
2023-02-09T13:58:12.500Z,6.11
2023-02-09T14:00:39.600Z,6.32
2023-02-09T14:03:12.447Z,6.19
2023-02-09T14:05:42.345Z,6.40
2023-02-09T14:08:13.626Z,6.35
2023-02-09T14:10:43.486Z,6.21
2023-02-09T14:13:21.995Z,6.27
2023-02-09T14:16:07.243Z,6.23
2023-02-09T14:18:54.597Z,6.24
2023-02-09T14:21:28.044Z,6.18
2023-02-09T14:24:02.595Z,5.86
2023-02-09T14:26:33.538Z,6.38
2023-02-09T14:29:12.613Z,6.32
2023-02-09T14:31:49.237Z,6.19
2023-02-09T14:34:37.155Z,6.18
2023-02-09T14:37:13.216Z,6.08
2023-02-09T14:40:21.546Z,6.17
2023-02-09T14:43:21.977Z,6.00
2023-02-09T14:45:59.245Z,6.43
2023-02-09T14:48:29.048Z,6.00
2023-02-09T14:50:59.434Z,5.71
2023-02-09T14:53:29.634Z,5.61
2023-02-09T14:55:57.756Z,5.63
2023-02-09T14:58:27.580Z,5.54
2023-02-09T15:00:57.094Z,5.35
2023-02-09T15:03:24.243Z,5.31
2023-02-09T15:05:57.346Z,5.29
2023-02-09T15:08:25.715Z,5.18
2023-02-09T15:11:01.397Z,5.15
2023-02-09T15:13:30.330Z,4.94
2023-02-09T15:15:57.205Z,4.98
2023-02-09T15:18:27.556Z,4.97
2023-02-09T15:20:54.133Z,5.10
2023-02-09T15:23:20.745Z,4.95
2023-02-09T15:25:48.039Z,4.60
2023-02-09T15:28:24.709Z,4.67
2023-02-09T15:30:51.697Z,4.40
2023-02-09T15:33:18.449Z,4.50
2023-02-09T15:35:45.232Z,4.23
2023-02-09T15:38:17.484Z,4.09
2023-02-09T15:41:06.596Z,4.02
2023-02-09T15:44:12.537Z,4.21
2023-02-09T15:46:57.658Z,3.89
2023-02-09T15:49:24.245Z,3.65
2023-02-09T15:51:52.380Z,3.56
2023-02-09T15:54:22.645Z,3.35
2023-02-09T15:56:49.418Z,3.38
2023-02-09T15:59:18.839Z,3.17
2023-02-09T16:01:46.017Z,2.86
2023-02-09T16:04:14.181Z,2.74
2023-02-09T16:06:48.235Z,2.66
2023-02-09T16:09:21.978Z,2.59
2023-02-09T16:11:48.844Z,2.57
2023-02-09T16:14:17.852Z,2.45
2023-02-09T16:16:45.648Z,2.56
2023-02-09T16:19:13.210Z,2.55
2023-02-09T16:21:43.963Z,2.28
2023-02-09T16:24:21.273Z,2.33
2023-02-09T16:26:48.637Z,2.09
2023-02-09T16:29:15.708Z,1.96
2023-02-09T16:31:42.168Z,1.96
2023-02-09T16:34:15.050Z,1.67
2023-02-09T16:36:42.191Z,1.66
2023-02-09T16:39:20.133Z,1.65
2023-02-09T16:41:47.486Z,1.54
2023-02-09T16:44:21.182Z,1.60
2023-02-09T16:46:51.474Z,1.43
2023-02-09T16:49:29.940Z,1.36
2023-02-09T16:52:00.811Z,1.20
2023-02-09T16:54:32.903Z,1.15
2023-02-09T16:57:00.796Z,1.01
2023-02-09T16:59:27.654Z,0.72
2023-02-09T17:01:54.528Z,0.51
2023-02-09T17:04:21.126Z,0.48
2023-02-09T17:06:50.624Z,0.67
2023-02-09T17:09:17.416Z,0.62
2023-02-09T17:11:44.214Z,0.52
2023-02-09T17:14:12.310Z,0.37
2023-02-09T17:16:43.218Z,0.40
2023-02-09T17:19:15.385Z,0.51
2023-02-09T17:21:42.499Z,0.43
2023-02-09T17:24:16.238Z,0.43
2023-02-09T17:26:43.885Z,0.68
2023-02-09T17:29:11.546Z,0.66
2023-02-09T17:31:52.432Z,0.58
2023-02-09T17:34:20.536Z,0.57
2023-02-09T17:36:47.087Z,0.28
2023-02-09T17:39:13.927Z,0.21
2023-02-09T17:41:46.299Z,0.15
2023-02-09T17:44:43.757Z,-0.09
2023-02-09T17:47:16.778Z,-0.40
2023-02-09T17:49:43.480Z,-0.49
2023-02-09T17:52:20.384Z,-0.52
2023-02-09T17:54:47.731Z,-0.45
2023-02-09T17:57:16.227Z,-0.45
2023-02-09T17:59:43.309Z,-0.40
2023-02-09T18:02:15.882Z,-0.54
2023-02-09T18:04:42.411Z,-0.33
2023-02-09T18:07:09.936Z,-0.53
2023-02-09T18:09:37.146Z,-0.59
2023-02-09T18:12:13.553Z,-0.27
2023-02-09T18:14:40.040Z,-0.69
2023-02-09T18:17:07.408Z,-0.61
2023-02-09T18:19:34.317Z,-0.59
2023-02-09T18:22:02.542Z,-0.66
2023-02-09T18:24:32.458Z,-0.55
2023-02-09T18:26:59.252Z,-0.88
2023-02-09T18:29:29.177Z,-0.74
2023-02-09T18:31:58.649Z,-1.10
2023-02-09T18:34:26.358Z,-0.96
2023-02-09T18:36:53.028Z,-1.03
2023-02-09T18:39:19.521Z,-1.25
2023-02-09T18:41:48.285Z,-1.19
2023-02-09T18:44:15.500Z,-1.29
2023-02-09T18:46:42.944Z,-1.48
2023-02-09T18:49:11.983Z,-1.56
2023-02-09T18:51:38.428Z,-1.65
2023-02-09T18:54:05.673Z,-1.81
2023-02-09T18:56:32.283Z,-1.88
2023-02-09T18:58:58.723Z,-1.86
2023-02-09T19:01:25.426Z,-1.94
2023-02-09T19:03:53.222Z,-1.58
2023-02-09T19:06:21.622Z,-1.69
2023-02-09T19:08:50.146Z,-1.71
2023-02-09T19:11:20.127Z,-1.61
2023-02-09T19:14:05.512Z,-1.54
2023-02-09T19:16:32.075Z,-1.71
2023-02-09T19:18:59.053Z,-1.71
2023-02-09T19:21:25.598Z,-1.66
2023-02-09T19:23:53.883Z,-1.63
2023-02-09T19:26:21.036Z,-1.85
2023-02-09T19:28:49.206Z,-2.05
2023-02-09T19:31:17.256Z,-2.16
2023-02-09T19:33:43.905Z,-2.15
2023-02-09T19:36:10.554Z,-2.10
2023-02-09T19:38:37.443Z,-2.14
2023-02-09T19:41:11.736Z,-2.25
2023-02-09T19:43:39.604Z,-2.31
2023-02-09T19:46:07.449Z,-2.26
2023-02-09T19:48:34.866Z,-2.31
2023-02-09T19:51:01.562Z,-2.21
2023-02-09T19:53:28.001Z,-2.32
2023-02-09T19:55:55.013Z,-2.36
2023-02-09T19:58:21.716Z,-2.37
2023-02-09T20:00:49.314Z,-2.47
2023-02-09T20:03:16.962Z,-2.49
2023-02-09T20:05:44.504Z,-2.49
2023-02-09T20:08:13.571Z,-2.43
2023-02-09T20:10:40.815Z,-2.46
2023-02-09T20:13:08.385Z,-2.35
2023-02-09T20:15:34.971Z,-2.54
2023-02-09T20:18:01.520Z,-2.65
2023-02-09T20:20:28.169Z,-2.63
2023-02-09T20:22:54.776Z,-2.70
2023-02-09T20:25:21.267Z,-2.72
2023-02-09T20:27:50.035Z,-2.63
2023-02-09T20:30:17.256Z,-2.76
2023-02-09T20:32:44.211Z,-2.85
2023-02-09T20:35:11.726Z,-2.71
2023-02-09T20:37:38.205Z,-2.87
2023-02-09T20:40:05.762Z,-2.92
2023-02-09T20:42:51.474Z,-2.93
2023-02-09T20:45:36.502Z,-2.81
2023-02-09T20:48:05.523Z,-2.75
2023-02-09T20:50:34.031Z,-2.65
2023-02-09T20:53:03.737Z,-2.64
2023-02-09T20:55:30.439Z,-2.68
2023-02-09T20:57:58.456Z,-2.63
2023-02-09T21:00:24.933Z,-2.45
2023-02-09T21:02:51.856Z,-2.37
2023-02-09T21:05:18.757Z,-2.24
2023-02-09T21:07:45.512Z,-2.00
2023-02-09T21:10:12.949Z,-1.74
2023-02-09T21:12:39.833Z,-1.57
2023-02-09T21:15:07.419Z,-1.54
2023-02-09T21:17:34.620Z,-1.55
2023-02-09T21:20:01.566Z,-1.47
2023-02-09T21:22:29.038Z,-1.39
2023-02-09T21:24:55.496Z,-1.40
2023-02-09T21:27:21.951Z,-1.23
2023-02-09T21:29:48.364Z,-1.30
2023-02-09T21:32:15.098Z,-1.32
2023-02-09T21:34:42.462Z,-1.23
2023-02-09T21:37:12.643Z,-1.25
2023-02-09T21:39:40.493Z,-1.22
2023-02-09T21:42:25.869Z,-1.07
2023-02-09T21:44:54.861Z,-1.04
2023-02-09T21:47:30.496Z,-0.88
2023-02-09T21:49:58.012Z,-0.96
2023-02-09T21:52:25.544Z,-0.95
2023-02-09T21:54:53.732Z,-0.93
2023-02-09T21:57:21.392Z,-0.88
2023-02-09T21:59:49.375Z,-0.95
2023-02-09T22:02:17.850Z,-1.01
2023-02-09T22:04:46.604Z,-1.02
2023-02-09T22:07:14.621Z,-0.98
2023-02-09T22:09:41.500Z,-1.05
2023-02-09T22:12:08.583Z,-0.99
2023-02-09T22:14:35.032Z,-0.91
2023-02-09T22:17:01.508Z,-0.88
2023-02-09T22:19:28.103Z,-0.60
2023-02-09T22:21:57.605Z,-0.70
2023-02-09T22:24:24.805Z,-0.65
2023-02-09T22:26:52.001Z,-0.66
2023-02-09T22:29:18.680Z,-0.58
2023-02-09T22:31:45.710Z,-0.62
2023-02-09T22:34:12.639Z,-0.55
2023-02-09T22:36:39.908Z,-0.51
2023-02-09T22:39:07.686Z,-0.35
2023-02-09T22:41:34.818Z,-0.41
2023-02-09T22:44:08.030Z,-0.52
2023-02-09T22:46:37.075Z,-0.38
2023-02-09T22:49:08.566Z,-0.35
2023-02-09T22:51:36.029Z,-0.40
2023-02-09T22:54:04.244Z,-0.46
2023-02-09T22:56:31.360Z,-0.46
2023-02-09T22:58:59.814Z,-0.29
2023-02-09T23:01:26.785Z,-0.23
2023-02-09T23:03:53.937Z,-0.25
2023-02-09T23:06:27.016Z,-0.33
2023-02-09T23:08:56.222Z,-0.31
2023-02-09T23:11:23.265Z,-0.26
2023-02-09T23:14:00.451Z,-0.16
2023-02-09T23:16:34.072Z,-0.14
2023-02-09T23:19:06.985Z,-0.15
2023-02-09T23:21:36.373Z,-0.14
2023-02-09T23:24:04.578Z,-0.04
2023-02-09T23:26:31.790Z,-0.18
2023-02-09T23:29:01.014Z,-0.05
2023-02-09T23:31:28.425Z,-0.14
2023-02-09T23:33:56.153Z,-0.21
2023-02-09T23:36:28.725Z,-0.08
2023-02-09T23:38:59.552Z,-0.03
2023-02-09T23:41:28.245Z,-0.02
2023-02-09T23:43:56.505Z,-0.12
2023-02-09T23:46:26.742Z,-0.08
2023-02-09T23:48:56.176Z,-0.10
2023-02-09T23:51:29.616Z,-0.06
2023-02-09T23:53:58.743Z,-0.09
2023-02-09T23:56:27.260Z,0.05
2023-02-09T23:58:54.329Z,0.09
